sensor_id;sensor_type;location;lat;lon;timestamp;P1;durP1;ratioP1;P2;durP2;ratioP2
51862;SDS011;37900;52.996;6.278;2023-07-24T00:02:12;5.25;;;3.60;;
51862;SDS011;37900;52.996;6.278;2023-07-24T00:04:38;7.35;;;3.28;;
51862;SDS011;37900;52.996;6.278;2023-07-24T00:07:04;5.32;;;3.17;;
51862;SDS011;37900;52.996;6.278;2023-07-24T00:09:30;6.47;;;3.92;;
51862;SDS011;37900;52.996;6.278;2023-07-24T00:11:56;6.20;;;3.65;;
51862;SDS011;37900;52.996;6.278;2023-07-24T00:14:21;5.07;;;3.17;;
51862;SDS011;37900;52.996;6.278;2023-07-24T00:16:47;4.80;;;3.60;;
51862;SDS011;37900;52.996;6.278;2023-07-24T00:19:13;5.22;;;3.28;;
51862;SDS011;37900;52.996;6.278;2023-07-24T00:21:38;6.57;;;3.53;;
51862;SDS011;37900;52.996;6.278;2023-07-24T00:24:04;4.65;;;3.47;;
51862;SDS011;37900;52.996;6.278;2023-07-24T00:26:30;7.45;;;3.53;;
51862;SDS011;37900;52.996;6.278;2023-07-24T00:28:56;5.65;;;3.67;;
51862;SDS011;37900;52.996;6.278;2023-07-24T00:31:21;7.85;;;3.53;;
51862;SDS011;37900;52.996;6.278;2023-07-24T00:33:47;5.40;;;3.10;;
51862;SDS011;37900;52.996;6.278;2023-07-24T00:36:13;5.28;;;3.53;;
51862;SDS011;37900;52.996;6.278;2023-07-24T00:38:38;6.40;;;3.47;;
51862;SDS011;37900;52.996;6.278;2023-07-24T00:41:04;5.22;;;3.33;;
51862;SDS011;37900;52.996;6.278;2023-07-24T00:43:30;5.60;;;3.40;;
51862;SDS011;37900;52.996;6.278;2023-07-24T00:45:56;5.03;;;3.30;;
51862;SDS011;37900;52.996;6.278;2023-07-24T00:48:22;5.07;;;3.53;;
51862;SDS011;37900;52.996;6.278;2023-07-24T00:50:48;7.13;;;3.83;;
51862;SDS011;37900;52.996;6.278;2023-07-24T00:53:14;5.95;;;3.42;;
51862;SDS011;37900;52.996;6.278;2023-07-24T00:55:42;6.75;;;3.58;;
51862;SDS011;37900;52.996;6.278;2023-07-24T00:58:10;5.10;;;3.67;;
51862;SDS011;37900;52.996;6.278;2023-07-24T01:00:37;6.43;;;4.15;;
51862;SDS011;37900;52.996;6.278;2023-07-24T01:03:04;4.80;;;3.28;;
51862;SDS011;37900;52.996;6.278;2023-07-24T01:05:30;5.28;;;3.67;;
51862;SDS011;37900;52.996;6.278;2023-07-24T01:07:55;5.13;;;3.17;;
51862;SDS011;37900;52.996;6.278;2023-07-24T01:10:21;5.72;;;3.50;;
51862;SDS011;37900;52.996;6.278;2023-07-24T01:13:08;4.63;;;3.13;;
51862;SDS011;37900;52.996;6.278;2023-07-24T01:16:03;4.45;;;3.45;;
51862;SDS011;37900;52.996;6.278;2023-07-24T01:18:34;5.50;;;3.40;;
51862;SDS011;37900;52.996;6.278;2023-07-24T01:21:03;7.00;;;3.53;;
51862;SDS011;37900;52.996;6.278;2023-07-24T01:26:03;4.90;;;3.28;;
51862;SDS011;37900;52.996;6.278;2023-07-24T01:28:31;5.53;;;3.65;;
51862;SDS011;37900;52.996;6.278;2023-07-24T01:30:57;4.00;;;2.97;;
51862;SDS011;37900;52.996;6.278;2023-07-24T01:33:23;5.00;;;3.03;;
51862;SDS011;37900;52.996;6.278;2023-07-24T01:35:57;4.65;;;2.80;;
51862;SDS011;37900;52.996;6.278;2023-07-24T01:38:25;4.80;;;3.20;;
51862;SDS011;37900;52.996;6.278;2023-07-24T01:40:55;6.33;;;3.83;;
51862;SDS011;37900;52.996;6.278;2023-07-24T01:43:22;4.72;;;3.33;;
51862;SDS011;37900;52.996;6.278;2023-07-24T01:45:48;5.30;;;3.45;;
51862;SDS011;37900;52.996;6.278;2023-07-24T01:48:13;5.13;;;3.30;;
51862;SDS011;37900;52.996;6.278;2023-07-24T01:50:39;4.53;;;3.35;;
51862;SDS011;37900;52.996;6.278;2023-07-24T01:53:05;4.00;;;3.05;;
51862;SDS011;37900;52.996;6.278;2023-07-24T01:55:30;4.85;;;3.05;;
51862;SDS011;37900;52.996;6.278;2023-07-24T01:57:56;5.00;;;3.58;;
51862;SDS011;37900;52.996;6.278;2023-07-24T02:00:22;6.07;;;3.60;;
51862;SDS011;37900;52.996;6.278;2023-07-24T02:02:47;3.90;;;2.85;;
51862;SDS011;37900;52.996;6.278;2023-07-24T02:05:13;5.80;;;3.60;;
51862;SDS011;37900;52.996;6.278;2023-07-24T02:07:39;5.60;;;3.53;;
51862;SDS011;37900;52.996;6.278;2023-07-24T02:10:04;4.40;;;3.08;;
51862;SDS011;37900;52.996;6.278;2023-07-24T02:12:30;6.05;;;3.60;;
51862;SDS011;37900;52.996;6.278;2023-07-24T02:14:56;5.65;;;3.30;;
51862;SDS011;37900;52.996;6.278;2023-07-24T02:17:23;5.57;;;3.78;;
51862;SDS011;37900;52.996;6.278;2023-07-24T02:19:48;4.43;;;2.90;;
51862;SDS011;37900;52.996;6.278;2023-07-24T02:22:15;4.85;;;3.00;;
51862;SDS011;37900;52.996;6.278;2023-07-24T02:24:41;5.78;;;4.18;;
51862;SDS011;37900;52.996;6.278;2023-07-24T02:27:06;5.85;;;3.30;;
51862;SDS011;37900;52.996;6.278;2023-07-24T02:29:32;4.57;;;3.25;;
51862;SDS011;37900;52.996;6.278;2023-07-24T02:31:58;5.68;;;3.88;;
51862;SDS011;37900;52.996;6.278;2023-07-24T02:34:26;4.65;;;3.53;;
51862;SDS011;37900;52.996;6.278;2023-07-24T02:36:53;5.43;;;3.40;;
51862;SDS011;37900;52.996;6.278;2023-07-24T02:39:19;4.88;;;3.10;;
51862;SDS011;37900;52.996;6.278;2023-07-24T02:41:45;6.10;;;2.92;;
51862;SDS011;37900;52.996;6.278;2023-07-24T02:44:12;4.75;;;2.78;;
51862;SDS011;37900;52.996;6.278;2023-07-24T02:46:38;5.68;;;3.65;;
51862;SDS011;37900;52.996;6.278;2023-07-24T02:49:03;5.18;;;3.10;;
51862;SDS011;37900;52.996;6.278;2023-07-24T02:51:30;5.47;;;3.10;;
51862;SDS011;37900;52.996;6.278;2023-07-24T02:53:55;5.50;;;3.42;;
51862;SDS011;37900;52.996;6.278;2023-07-24T02:56:21;4.25;;;2.95;;
51862;SDS011;37900;52.996;6.278;2023-07-24T02:58:47;3.88;;;2.97;;
51862;SDS011;37900;52.996;6.278;2023-07-24T03:01:12;3.80;;;2.83;;
51862;SDS011;37900;52.996;6.278;2023-07-24T03:03:39;6.40;;;3.25;;
51862;SDS011;37900;52.996;6.278;2023-07-24T03:06:06;4.40;;;3.17;;
51862;SDS011;37900;52.996;6.278;2023-07-24T03:08:32;5.65;;;2.80;;
51862;SDS011;37900;52.996;6.278;2023-07-24T03:10:58;3.92;;;2.92;;
51862;SDS011;37900;52.996;6.278;2023-07-24T03:13:24;5.07;;;3.45;;
51862;SDS011;37900;52.996;6.278;2023-07-24T03:15:56;5.97;;;3.47;;
51862;SDS011;37900;52.996;6.278;2023-07-24T03:18:23;6.05;;;3.22;;
51862;SDS011;37900;52.996;6.278;2023-07-24T03:20:49;4.70;;;3.30;;
51862;SDS011;37900;52.996;6.278;2023-07-24T03:23:14;4.47;;;3.22;;
51862;SDS011;37900;52.996;6.278;2023-07-24T03:25:40;4.32;;;3.08;;
51862;SDS011;37900;52.996;6.278;2023-07-24T03:28:06;5.05;;;3.35;;
51862;SDS011;37900;52.996;6.278;2023-07-24T03:30:32;5.68;;;3.60;;
51862;SDS011;37900;52.996;6.278;2023-07-24T03:32:57;4.65;;;2.75;;
51862;SDS011;37900;52.996;6.278;2023-07-24T03:35:23;4.15;;;2.78;;
51862;SDS011;37900;52.996;6.278;2023-07-24T03:37:49;5.00;;;3.13;;
51862;SDS011;37900;52.996;6.278;2023-07-24T03:40:15;4.75;;;3.20;;
51862;SDS011;37900;52.996;6.278;2023-07-24T03:42:41;5.00;;;3.20;;
51862;SDS011;37900;52.996;6.278;2023-07-24T03:45:07;4.85;;;3.25;;
51862;SDS011;37900;52.996;6.278;2023-07-24T03:47:33;4.43;;;2.97;;
51862;SDS011;37900;52.996;6.278;2023-07-24T03:49:59;4.80;;;2.90;;
51862;SDS011;37900;52.996;6.278;2023-07-24T03:52:25;4.88;;;2.83;;
51862;SDS011;37900;52.996;6.278;2023-07-24T03:54:51;3.20;;;2.53;;
51862;SDS011;37900;52.996;6.278;2023-07-24T03:57:17;4.20;;;3.28;;
51862;SDS011;37900;52.996;6.278;2023-07-24T03:59:43;5.18;;;3.20;;
51862;SDS011;37900;52.996;6.278;2023-07-24T04:02:09;6.32;;;3.08;;
51862;SDS011;37900;52.996;6.278;2023-07-24T04:04:35;4.43;;;3.30;;
51862;SDS011;37900;52.996;6.278;2023-07-24T04:07:00;4.68;;;2.92;;
51862;SDS011;37900;52.996;6.278;2023-07-24T04:09:26;4.20;;;2.80;;
51862;SDS011;37900;52.996;6.278;2023-07-24T04:11:52;4.68;;;3.20;;
51862;SDS011;37900;52.996;6.278;2023-07-24T04:14:18;4.15;;;3.08;;
51862;SDS011;37900;52.996;6.278;2023-07-24T04:16:43;4.72;;;3.00;;
51862;SDS011;37900;52.996;6.278;2023-07-24T04:19:10;5.47;;;3.33;;
51862;SDS011;37900;52.996;6.278;2023-07-24T04:21:35;4.95;;;3.03;;
51862;SDS011;37900;52.996;6.278;2023-07-24T04:24:01;3.78;;;2.75;;
51862;SDS011;37900;52.996;6.278;2023-07-24T04:26:27;6.25;;;3.30;;
51862;SDS011;37900;52.996;6.278;2023-07-24T04:28:52;4.70;;;3.05;;
51862;SDS011;37900;52.996;6.278;2023-07-24T04:31:18;4.50;;;2.75;;
51862;SDS011;37900;52.996;6.278;2023-07-24T04:33:44;3.85;;;2.65;;
51862;SDS011;37900;52.996;6.278;2023-07-24T04:36:09;4.45;;;2.90;;
51862;SDS011;37900;52.996;6.278;2023-07-24T04:38:35;6.45;;;3.50;;
51862;SDS011;37900;52.996;6.278;2023-07-24T04:41:01;4.45;;;2.90;;
51862;SDS011;37900;52.996;6.278;2023-07-24T04:43:27;4.40;;;2.63;;
51862;SDS011;37900;52.996;6.278;2023-07-24T04:45:53;5.03;;;3.40;;
51862;SDS011;37900;52.996;6.278;2023-07-24T04:48:19;3.65;;;3.00;;
51862;SDS011;37900;52.996;6.278;2023-07-24T04:50:45;4.00;;;2.90;;
51862;SDS011;37900;52.996;6.278;2023-07-24T04:53:10;3.65;;;2.75;;
51862;SDS011;37900;52.996;6.278;2023-07-24T04:55:36;4.22;;;2.92;;
51862;SDS011;37900;52.996;6.278;2023-07-24T04:58:02;4.38;;;2.90;;
51862;SDS011;37900;52.996;6.278;2023-07-24T05:00:27;3.88;;;2.80;;
51862;SDS011;37900;52.996;6.278;2023-07-24T05:02:53;4.18;;;2.95;;
51862;SDS011;37900;52.996;6.278;2023-07-24T05:05:19;4.00;;;3.35;;
51862;SDS011;37900;52.996;6.278;2023-07-24T05:07:45;4.47;;;2.83;;
51862;SDS011;37900;52.996;6.278;2023-07-24T05:10:10;3.25;;;2.72;;
51862;SDS011;37900;52.996;6.278;2023-07-24T05:12:36;3.70;;;2.80;;
51862;SDS011;37900;52.996;6.278;2023-07-24T05:15:02;6.82;;;3.47;;
51862;SDS011;37900;52.996;6.278;2023-07-24T05:17:28;4.00;;;2.70;;
51862;SDS011;37900;52.996;6.278;2023-07-24T05:19:54;4.68;;;3.08;;
51862;SDS011;37900;52.996;6.278;2023-07-24T05:22:19;5.03;;;2.88;;
51862;SDS011;37900;52.996;6.278;2023-07-24T05:24:45;4.15;;;2.60;;
51862;SDS011;37900;52.996;6.278;2023-07-24T05:27:11;3.92;;;2.88;;
51862;SDS011;37900;52.996;6.278;2023-07-24T05:29:37;4.30;;;3.17;;
51862;SDS011;37900;52.996;6.278;2023-07-24T05:32:03;3.95;;;2.67;;
51862;SDS011;37900;52.996;6.278;2023-07-24T05:34:29;4.13;;;2.83;;
51862;SDS011;37900;52.996;6.278;2023-07-24T05:36:54;4.32;;;3.03;;
51862;SDS011;37900;52.996;6.278;2023-07-24T05:39:20;3.95;;;2.70;;
51862;SDS011;37900;52.996;6.278;2023-07-24T05:41:47;3.85;;;2.75;;
51862;SDS011;37900;52.996;6.278;2023-07-24T05:44:13;3.75;;;2.65;;
51862;SDS011;37900;52.996;6.278;2023-07-24T05:46:39;3.67;;;2.90;;
51862;SDS011;37900;52.996;6.278;2023-07-24T05:49:05;4.32;;;2.65;;
51862;SDS011;37900;52.996;6.278;2023-07-24T05:51:30;4.55;;;3.03;;
51862;SDS011;37900;52.996;6.278;2023-07-24T05:53:56;4.40;;;2.83;;
51862;SDS011;37900;52.996;6.278;2023-07-24T05:56:22;4.60;;;3.22;;
51862;SDS011;37900;52.996;6.278;2023-07-24T05:58:47;4.05;;;3.13;;
51862;SDS011;37900;52.996;6.278;2023-07-24T06:01:14;3.95;;;2.95;;
51862;SDS011;37900;52.996;6.278;2023-07-24T06:03:40;5.10;;;3.10;;
51862;SDS011;37900;52.996;6.278;2023-07-24T06:06:05;3.47;;;2.80;;
51862;SDS011;37900;52.996;6.278;2023-07-24T06:08:31;5.10;;;2.80;;
51862;SDS011;37900;52.996;6.278;2023-07-24T06:10:57;4.35;;;2.72;;
51862;SDS011;37900;52.996;6.278;2023-07-24T06:13:22;4.45;;;3.28;;
51862;SDS011;37900;52.996;6.278;2023-07-24T06:15:49;4.65;;;2.88;;
51862;SDS011;37900;52.996;6.278;2023-07-24T06:18:15;4.95;;;2.92;;
51862;SDS011;37900;52.996;6.278;2023-07-24T06:20:41;3.67;;;2.78;;
51862;SDS011;37900;52.996;6.278;2023-07-24T06:23:06;3.85;;;2.85;;
51862;SDS011;37900;52.996;6.278;2023-07-24T06:25:33;3.85;;;2.85;;
51862;SDS011;37900;52.996;6.278;2023-07-24T06:27:58;5.28;;;3.17;;
51862;SDS011;37900;52.996;6.278;2023-07-24T06:30:24;4.03;;;2.90;;
51862;SDS011;37900;52.996;6.278;2023-07-24T06:32:50;4.28;;;2.78;;
51862;SDS011;37900;52.996;6.278;2023-07-24T06:35:16;4.38;;;3.10;;
51862;SDS011;37900;52.996;6.278;2023-07-24T06:37:42;3.95;;;3.13;;
51862;SDS011;37900;52.996;6.278;2023-07-24T06:40:08;3.78;;;2.50;;
51862;SDS011;37900;52.996;6.278;2023-07-24T06:42:34;4.45;;;3.10;;
51862;SDS011;37900;52.996;6.278;2023-07-24T06:45:00;4.80;;;3.50;;
51862;SDS011;37900;52.996;6.278;2023-07-24T06:47:26;3.80;;;2.85;;
51862;SDS011;37900;52.996;6.278;2023-07-24T06:49:51;3.55;;;2.38;;
51862;SDS011;37900;52.996;6.278;2023-07-24T06:52:17;3.83;;;2.72;;
51862;SDS011;37900;52.996;6.278;2023-07-24T06:54:43;3.30;;;2.58;;
51862;SDS011;37900;52.996;6.278;2023-07-24T06:57:09;3.38;;;2.50;;
51862;SDS011;37900;52.996;6.278;2023-07-24T06:59:34;3.25;;;2.55;;
51862;SDS011;37900;52.996;6.278;2023-07-24T07:02:01;4.28;;;2.90;;
51862;SDS011;37900;52.996;6.278;2023-07-24T07:04:26;3.53;;;2.55;;
51862;SDS011;37900;52.996;6.278;2023-07-24T07:06:52;3.90;;;2.70;;
51862;SDS011;37900;52.996;6.278;2023-07-24T07:09:18;5.30;;;2.70;;
51862;SDS011;37900;52.996;6.278;2023-07-24T07:11:43;3.40;;;2.42;;
51862;SDS011;37900;52.996;6.278;2023-07-24T07:14:10;3.58;;;2.85;;
51862;SDS011;37900;52.996;6.278;2023-07-24T07:16:35;4.05;;;2.83;;
51862;SDS011;37900;52.996;6.278;2023-07-24T07:19:01;5.10;;;3.10;;
51862;SDS011;37900;52.996;6.278;2023-07-24T07:21:27;3.92;;;2.97;;
51862;SDS011;37900;52.996;6.278;2023-07-24T07:23:52;3.80;;;2.67;;
51862;SDS011;37900;52.996;6.278;2023-07-24T07:26:18;3.78;;;3.20;;
51862;SDS011;37900;52.996;6.278;2023-07-24T07:28:44;3.85;;;2.80;;
51862;SDS011;37900;52.996;6.278;2023-07-24T07:31:12;3.90;;;2.75;;
51862;SDS011;37900;52.996;6.278;2023-07-24T07:33:38;6.35;;;3.10;;
51862;SDS011;37900;52.996;6.278;2023-07-24T07:36:04;3.45;;;2.65;;
51862;SDS011;37900;52.996;6.278;2023-07-24T07:38:31;3.83;;;2.75;;
51862;SDS011;37900;52.996;6.278;2023-07-24T07:40:57;3.03;;;2.40;;
51862;SDS011;37900;52.996;6.278;2023-07-24T07:43:22;4.65;;;3.15;;
51862;SDS011;37900;52.996;6.278;2023-07-24T07:45:48;4.55;;;2.80;;
51862;SDS011;37900;52.996;6.278;2023-07-24T07:48:14;4.03;;;2.88;;
51862;SDS011;37900;52.996;6.278;2023-07-24T07:50:40;3.58;;;2.70;;
51862;SDS011;37900;52.996;6.278;2023-07-24T07:53:05;4.32;;;3.28;;
51862;SDS011;37900;52.996;6.278;2023-07-24T07:55:31;6.07;;;2.78;;
51862;SDS011;37900;52.996;6.278;2023-07-24T07:57:57;5.25;;;3.05;;
51862;SDS011;37900;52.996;6.278;2023-07-24T08:00:23;3.90;;;2.58;;
51862;SDS011;37900;52.996;6.278;2023-07-24T08:02:48;4.80;;;2.92;;
51862;SDS011;37900;52.996;6.278;2023-07-24T08:05:14;4.45;;;2.83;;
51862;SDS011;37900;52.996;6.278;2023-07-24T08:07:40;3.40;;;2.40;;
51862;SDS011;37900;52.996;6.278;2023-07-24T08:10:06;6.78;;;3.00;;
51862;SDS011;37900;52.996;6.278;2023-07-24T08:12:32;5.57;;;2.60;;
51862;SDS011;37900;52.996;6.278;2023-07-24T08:14:58;4.45;;;2.95;;
51862;SDS011;37900;52.996;6.278;2023-07-24T08:17:25;2.60;;;2.22;;
51862;SDS011;37900;52.996;6.278;2023-07-24T08:19:50;4.03;;;2.90;;
51862;SDS011;37900;52.996;6.278;2023-07-24T08:22:16;5.70;;;3.08;;
51862;SDS011;37900;52.996;6.278;2023-07-24T08:24:42;8.38;;;2.72;;
51862;SDS011;37900;52.996;6.278;2023-07-24T08:27:09;4.28;;;2.80;;
51862;SDS011;37900;52.996;6.278;2023-07-24T08:29:35;3.95;;;3.25;;
51862;SDS011;37900;52.996;6.278;2023-07-24T08:32:03;5.07;;;3.67;;
51862;SDS011;37900;52.996;6.278;2023-07-24T08:34:29;5.45;;;3.35;;
51862;SDS011;37900;52.996;6.278;2023-07-24T08:36:55;4.50;;;3.47;;
51862;SDS011;37900;52.996;6.278;2023-07-24T08:39:20;5.30;;;3.60;;
51862;SDS011;37900;52.996;6.278;2023-07-24T08:41:46;5.32;;;3.35;;
51862;SDS011;37900;52.996;6.278;2023-07-24T08:44:12;4.88;;;3.95;;
51862;SDS011;37900;52.996;6.278;2023-07-24T08:46:38;5.50;;;4.00;;
51862;SDS011;37900;52.996;6.278;2023-07-24T08:49:06;5.22;;;3.50;;
51862;SDS011;37900;52.996;6.278;2023-07-24T08:51:36;7.80;;;4.22;;
51862;SDS011;37900;52.996;6.278;2023-07-24T08:54:03;4.50;;;3.70;;
51862;SDS011;37900;52.996;6.278;2023-07-24T08:56:30;7.30;;;4.80;;
51862;SDS011;37900;52.996;6.278;2023-07-24T08:58:56;7.40;;;4.18;;
51862;SDS011;37900;52.996;6.278;2023-07-24T09:01:21;8.65;;;5.68;;
51862;SDS011;37900;52.996;6.278;2023-07-24T09:03:47;10.02;;;5.15;;
51862;SDS011;37900;52.996;6.278;2023-07-24T09:06:13;8.57;;;5.03;;
51862;SDS011;37900;52.996;6.278;2023-07-24T09:08:42;8.25;;;5.40;;
51862;SDS011;37900;52.996;6.278;2023-07-24T09:11:10;7.85;;;4.57;;
51862;SDS011;37900;52.996;6.278;2023-07-24T09:13:41;8.27;;;4.88;;
51862;SDS011;37900;52.996;6.278;2023-07-24T09:16:08;6.88;;;4.65;;
51862;SDS011;37900;52.996;6.278;2023-07-24T09:18:40;10.13;;;4.55;;
51862;SDS011;37900;52.996;6.278;2023-07-24T09:21:07;8.88;;;4.78;;
51862;SDS011;37900;52.996;6.278;2023-07-24T09:23:33;8.52;;;4.63;;
51862;SDS011;37900;52.996;6.278;2023-07-24T09:25:58;7.30;;;4.50;;
51862;SDS011;37900;52.996;6.278;2023-07-24T09:28:29;6.38;;;4.63;;
51862;SDS011;37900;52.996;6.278;2023-07-24T09:30:56;5.90;;;4.38;;
51862;SDS011;37900;52.996;6.278;2023-07-24T09:33:23;8.25;;;4.60;;
51862;SDS011;37900;52.996;6.278;2023-07-24T09:36:03;9.13;;;5.57;;
51862;SDS011;37900;52.996;6.278;2023-07-24T09:38:30;6.43;;;4.70;;
51862;SDS011;37900;52.996;6.278;2023-07-24T09:40:56;6.38;;;4.45;;
51862;SDS011;37900;52.996;6.278;2023-07-24T09:43:23;7.25;;;4.50;;
51862;SDS011;37900;52.996;6.278;2023-07-24T09:45:51;5.80;;;4.63;;
51862;SDS011;37900;52.996;6.278;2023-07-24T09:48:18;7.10;;;5.28;;
51862;SDS011;37900;52.996;6.278;2023-07-24T09:50:46;7.50;;;5.18;;
51862;SDS011;37900;52.996;6.278;2023-07-24T09:53:18;6.20;;;3.92;;
51862;SDS011;37900;52.996;6.278;2023-07-24T09:55:53;7.45;;;4.90;;
51862;SDS011;37900;52.996;6.278;2023-07-24T09:58:23;9.70;;;5.25;;
51862;SDS011;37900;52.996;6.278;2023-07-24T10:00:50;6.57;;;4.57;;
51862;SDS011;37900;52.996;6.278;2023-07-24T10:03:16;7.05;;;4.90;;
51862;SDS011;37900;52.996;6.278;2023-07-24T10:05:46;8.73;;;5.13;;
51862;SDS011;37900;52.996;6.278;2023-07-24T10:08:16;7.88;;;5.05;;
51862;SDS011;37900;52.996;6.278;2023-07-24T10:10:43;6.97;;;4.75;;
51862;SDS011;37900;52.996;6.278;2023-07-24T10:13:10;9.70;;;6.03;;
51862;SDS011;37900;52.996;6.278;2023-07-24T10:15:40;5.78;;;4.38;;
51862;SDS011;37900;52.996;6.278;2023-07-24T10:18:10;7.22;;;4.85;;
51862;SDS011;37900;52.996;6.278;2023-07-24T10:20:39;6.03;;;4.32;;
51862;SDS011;37900;52.996;6.278;2023-07-24T10:23:07;8.77;;;4.60;;
51862;SDS011;37900;52.996;6.278;2023-07-24T10:25:35;6.53;;;4.53;;
51862;SDS011;37900;52.996;6.278;2023-07-24T10:28:03;7.75;;;5.40;;
51862;SDS011;37900;52.996;6.278;2023-07-24T10:30:35;6.43;;;5.00;;
51862;SDS011;37900;52.996;6.278;2023-07-24T10:33:18;7.43;;;4.93;;
51862;SDS011;37900;52.996;6.278;2023-07-24T10:35:48;10.85;;;4.57;;
51862;SDS011;37900;52.996;6.278;2023-07-24T10:38:23;7.35;;;4.93;;
51862;SDS011;37900;52.996;6.278;2023-07-24T10:41:01;8.32;;;4.57;;
51862;SDS011;37900;52.996;6.278;2023-07-24T10:43:29;8.00;;;5.00;;
51862;SDS011;37900;52.996;6.278;2023-07-24T10:46:04;6.78;;;4.97;;
51862;SDS011;37900;52.996;6.278;2023-07-24T10:48:30;9.32;;;5.22;;
51862;SDS011;37900;52.996;6.278;2023-07-24T10:50:56;8.70;;;4.90;;
51862;SDS011;37900;52.996;6.278;2023-07-24T10:53:22;7.78;;;5.47;;
51862;SDS011;37900;52.996;6.278;2023-07-24T10:55:48;7.20;;;4.65;;
51862;SDS011;37900;52.996;6.278;2023-07-24T10:58:18;7.43;;;4.72;;
51862;SDS011;37900;52.996;6.278;2023-07-24T11:00:44;5.68;;;5.03;;
51862;SDS011;37900;52.996;6.278;2023-07-24T11:03:13;9.63;;;5.77;;
51862;SDS011;37900;52.996;6.278;2023-07-24T11:05:40;7.32;;;4.97;;
51862;SDS011;37900;52.996;6.278;2023-07-24T11:08:14;9.30;;;5.35;;
51862;SDS011;37900;52.996;6.278;2023-07-24T11:10:47;8.73;;;4.97;;
51862;SDS011;37900;52.996;6.278;2023-07-24T11:13:15;7.25;;;5.47;;
51862;SDS011;37900;52.996;6.278;2023-07-24T11:15:51;6.65;;;4.85;;
51862;SDS011;37900;52.996;6.278;2023-07-24T11:18:18;7.53;;;5.35;;
51862;SDS011;37900;52.996;6.278;2023-07-24T11:20:51;8.88;;;4.72;;
51862;SDS011;37900;52.996;6.278;2023-07-24T11:23:17;6.25;;;4.70;;
51862;SDS011;37900;52.996;6.278;2023-07-24T11:25:43;6.68;;;4.43;;
51862;SDS011;37900;52.996;6.278;2023-07-24T11:28:11;6.60;;;4.45;;
51862;SDS011;37900;52.996;6.278;2023-07-24T11:30:38;5.93;;;4.30;;
51862;SDS011;37900;52.996;6.278;2023-07-24T11:33:05;7.45;;;4.82;;
51862;SDS011;37900;52.996;6.278;2023-07-24T11:35:33;6.03;;;4.40;;
51862;SDS011;37900;52.996;6.278;2023-07-24T11:38:00;8.35;;;4.53;;
51862;SDS011;37900;52.996;6.278;2023-07-24T11:40:44;6.27;;;4.20;;
51862;SDS011;37900;52.996;6.278;2023-07-24T11:43:17;8.65;;;4.50;;
51862;SDS011;37900;52.996;6.278;2023-07-24T11:45:47;8.82;;;4.38;;
51862;SDS011;37900;52.996;6.278;2023-07-24T11:48:16;7.55;;;4.63;;
51862;SDS011;37900;52.996;6.278;2023-07-24T11:50:50;5.43;;;4.38;;
51862;SDS011;37900;52.996;6.278;2023-07-24T11:53:21;8.65;;;4.82;;
51862;SDS011;37900;52.996;6.278;2023-07-24T11:55:47;8.93;;;4.50;;
51862;SDS011;37900;52.996;6.278;2023-07-24T11:58:14;6.78;;;4.80;;
51862;SDS011;37900;52.996;6.278;2023-07-24T12:00:41;7.05;;;4.90;;
51862;SDS011;37900;52.996;6.278;2023-07-24T12:03:07;9.38;;;5.75;;
51862;SDS011;37900;52.996;6.278;2023-07-24T12:05:43;7.55;;;4.95;;
51862;SDS011;37900;52.996;6.278;2023-07-24T12:08:10;7.55;;;5.10;;
51862;SDS011;37900;52.996;6.278;2023-07-24T12:10:36;7.13;;;5.50;;
51862;SDS011;37900;52.996;6.278;2023-07-24T12:15:29;7.68;;;5.13;;
51862;SDS011;37900;52.996;6.278;2023-07-24T12:17:55;7.50;;;5.82;;
51862;SDS011;37900;52.996;6.278;2023-07-24T12:20:22;11.85;;;6.68;;
51862;SDS011;37900;52.996;6.278;2023-07-24T12:22:48;9.13;;;5.57;;
51862;SDS011;37900;52.996;6.278;2023-07-24T12:25:14;9.23;;;5.50;;
51862;SDS011;37900;52.996;6.278;2023-07-24T12:27:41;10.85;;;6.53;;
51862;SDS011;37900;52.996;6.278;2023-07-24T12:30:07;11.85;;;8.45;;
51862;SDS011;37900;52.996;6.278;2023-07-24T12:32:34;11.10;;;9.90;;
51862;SDS011;37900;52.996;6.278;2023-07-24T12:35:00;11.18;;;8.55;;
51862;SDS011;37900;52.996;6.278;2023-07-24T12:37:26;8.88;;;7.72;;
51862;SDS011;37900;52.996;6.278;2023-07-24T12:39:52;8.95;;;7.32;;
51862;SDS011;37900;52.996;6.278;2023-07-24T12:42:17;8.32;;;7.43;;
51862;SDS011;37900;52.996;6.278;2023-07-24T12:44:43;7.80;;;7.00;;
51862;SDS011;37900;52.996;6.278;2023-07-24T12:47:09;8.15;;;6.68;;
51862;SDS011;37900;52.996;6.278;2023-07-24T12:52:02;7.40;;;6.57;;
51862;SDS011;37900;52.996;6.278;2023-07-24T12:54:29;7.40;;;5.95;;
51862;SDS011;37900;52.996;6.278;2023-07-24T12:56:55;8.93;;;6.47;;
51862;SDS011;37900;52.996;6.278;2023-07-24T12:59:20;7.22;;;6.07;;
51862;SDS011;37900;52.996;6.278;2023-07-24T13:01:46;9.23;;;6.05;;
51862;SDS011;37900;52.996;6.278;2023-07-24T13:04:12;10.13;;;5.78;;
51862;SDS011;37900;52.996;6.278;2023-07-24T13:06:38;6.97;;;5.40;;
51862;SDS011;37900;52.996;6.278;2023-07-24T13:09:04;7.75;;;5.47;;
51862;SDS011;37900;52.996;6.278;2023-07-24T13:11:30;6.40;;;5.25;;
51862;SDS011;37900;52.996;6.278;2023-07-24T13:13:56;5.65;;;4.93;;
51862;SDS011;37900;52.996;6.278;2023-07-24T13:16:22;7.18;;;5.40;;
51862;SDS011;37900;52.996;6.278;2023-07-24T13:18:48;5.63;;;4.77;;
51862;SDS011;37900;52.996;6.278;2023-07-24T13:21:14;7.50;;;5.00;;
51862;SDS011;37900;52.996;6.278;2023-07-24T13:23:40;9.45;;;5.50;;
51862;SDS011;37900;52.996;6.278;2023-07-24T13:26:07;8.20;;;5.43;;
51862;SDS011;37900;52.996;6.278;2023-07-24T13:28:33;6.30;;;4.70;;
51862;SDS011;37900;52.996;6.278;2023-07-24T13:30:59;6.13;;;4.72;;
51862;SDS011;37900;52.996;6.278;2023-07-24T13:33:35;5.03;;;4.30;;
51862;SDS011;37900;52.996;6.278;2023-07-24T13:36:02;7.38;;;4.32;;
51862;SDS011;37900;52.996;6.278;2023-07-24T13:38:27;5.20;;;4.43;;
51862;SDS011;37900;52.996;6.278;2023-07-24T13:40:53;5.07;;;4.10;;
51862;SDS011;37900;52.996;6.278;2023-07-24T13:43:19;6.13;;;4.63;;
51862;SDS011;37900;52.996;6.278;2023-07-24T13:45:44;6.35;;;3.55;;
51862;SDS011;37900;52.996;6.278;2023-07-24T13:48:10;8.20;;;3.40;;
51862;SDS011;37900;52.996;6.278;2023-07-24T13:50:36;6.25;;;4.00;;
51862;SDS011;37900;52.996;6.278;2023-07-24T13:53:01;5.25;;;3.88;;
51862;SDS011;37900;52.996;6.278;2023-07-24T13:55:27;4.43;;;3.22;;
51862;SDS011;37900;52.996;6.278;2023-07-24T13:57:53;4.40;;;3.75;;
51862;SDS011;37900;52.996;6.278;2023-07-24T14:00:19;4.22;;;3.00;;
51862;SDS011;37900;52.996;6.278;2023-07-24T14:02:45;3.90;;;2.83;;
51862;SDS011;37900;52.996;6.278;2023-07-24T14:05:10;4.78;;;3.15;;
51862;SDS011;37900;52.996;6.278;2023-07-24T14:07:36;5.10;;;2.90;;
51862;SDS011;37900;52.996;6.278;2023-07-24T14:10:02;4.80;;;3.20;;
51862;SDS011;37900;52.996;6.278;2023-07-24T14:12:28;3.60;;;2.88;;
51862;SDS011;37900;52.996;6.278;2023-07-24T14:14:53;4.03;;;2.78;;
51862;SDS011;37900;52.996;6.278;2023-07-24T14:17:19;3.58;;;3.25;;
51862;SDS011;37900;52.996;6.278;2023-07-24T14:19:45;3.47;;;2.60;;
51862;SDS011;37900;52.996;6.278;2023-07-24T14:22:10;4.25;;;2.70;;
51862;SDS011;37900;52.996;6.278;2023-07-24T14:24:36;4.47;;;2.78;;
51862;SDS011;37900;52.996;6.278;2023-07-24T14:27:02;5.28;;;2.67;;
51862;SDS011;37900;52.996;6.278;2023-07-24T14:29:28;5.45;;;2.70;;
51862;SDS011;37900;52.996;6.278;2023-07-24T14:31:53;4.22;;;2.28;;
51862;SDS011;37900;52.996;6.278;2023-07-24T14:34:19;4.22;;;2.33;;
51862;SDS011;37900;52.996;6.278;2023-07-24T14:36:45;4.85;;;2.83;;
51862;SDS011;37900;52.996;6.278;2023-07-24T14:39:10;3.80;;;2.65;;
51862;SDS011;37900;52.996;6.278;2023-07-24T14:41:36;2.50;;;2.17;;
51862;SDS011;37900;52.996;6.278;2023-07-24T14:44:02;3.85;;;2.83;;
51862;SDS011;37900;52.996;6.278;2023-07-24T14:46:28;4.05;;;2.30;;
51862;SDS011;37900;52.996;6.278;2023-07-24T14:48:53;3.53;;;2.15;;
51862;SDS011;37900;52.996;6.278;2023-07-24T14:51:19;3.08;;;2.08;;
51862;SDS011;37900;52.996;6.278;2023-07-24T14:53:45;4.72;;;2.65;;